Time;durP1;ratioP1;P1;durP2;ratioP2;P2;SDS_P1;SDS_P2;PMS_P1;PMS_P2;Temp;Humidity;BMP_temperature;BMP_pressure;BME280_temperature;BME280_humidity;BME280_pressure;Samples;Min_cycle;Max_cycle;Signal;HPM_P1;HPM_P2
2019/06/05 00:00:15;;;;;;;4.3;3.4;;;;;;;;;;;;;
2019/06/05 00:02:34;;;;;;;6.4;3.9;;;;;;;;;;;;;
2019/06/05 00:04:58;;;;;;;6.5;3.6;;;;;;;;;;;;;
2019/06/05 00:07:28;;;;;;;6.9;3.2;;;;;;;;;;;;;
2019/06/05 00:09:57;;;;;;;6.9;3.2;;;;;;;;;;;;;
2019/06/05 00:12:16;;;;;;;4.3;3.6;;;;;;;;;;;;;
2019/06/05 00:14:40;;;;;;;4.6;3.6;;;;;;;;;;;;;
2019/06/05 00:17:05;;;;;;;5.5;3.5;;;;;;;;;;;;;
2019/06/05 00:19:33;;;;;;;7;3.9;;;;;;;;;;;;;
2019/06/05 00:22:08;;;;;;;5.2;3.7;;;;;;;;;;;;;
2019/06/05 00:24:20;;;;;;;5.2;3.5;;;;;;;;;;;;;
2019/06/05 00:26:54;;;;;;;5.4;3.7;;;;;;;;;;;;;
2019/06/05 00:29:17;;;;;;;7.7;3.9;;;;;;;;;;;;;
2019/06/05 00:31:44;;;;;;;6.3;3.7;;;;;;;;;;;;;
2019/06/05 00:34:09;;;;;;;5.2;3.5;;;;;;;;;;;;;
2019/06/05 00:36:35;;;;;;;4;3.4;;;;;;;;;;;;;
2019/06/05 00:39:05;;;;;;;5.7;3.6;;;;;;;;;;;;;
2019/06/05 00:41:33;;;;;;;4.2;3.7;;;;;;;;;;;;;
2019/06/05 00:44:00;;;;;;;7.3;3.6;;;;;;;;;;;;;
2019/06/05 00:46:23;;;;;;;13.4;3.9;;;;;;;;;;;;;
2019/06/05 00:48:50;;;;;;;7.3;3.5;;;;;;;;;;;;;
2019/06/05 00:51:18;;;;;;;4.4;2.9;;;;;;;;;;;;;
2019/06/05 00:53:43;;;;;;;4.1;3.7;;;;;;;;;;;;;
2019/06/05 00:56:07;;;;;;;6.6;3.2;;;;;;;;;;;;;
2019/06/05 00:58:38;;;;;;;5.8;3;;;;;;;;;;;;;
2019/06/05 01:00:58;;;;;;;5.6;3.8;;;;;;;;;;;;;
2019/06/05 01:03:26;;;;;;;5.1;3.2;;;;;;;;;;;;;
2019/06/05 01:05:52;;;;;;;4.3;3.3;;;;;;;;;;;;;
2019/06/05 01:08:19;;;;;;;5.1;3.6;;;;;;;;;;;;;
2019/06/05 01:10:40;;;;;;;5.8;4;;;;;;;;;;;;;
2019/06/05 01:18:07;;;;;;;5.5;3.3;;;;;;;;;;;;;
2019/06/05 01:20:32;;;;;;;4.6;3.6;;;;;;;;;;;;;
2019/06/05 01:22:57;;;;;;;6;3.7;;;;;;;;;;;;;
2019/06/05 01:25:24;;;;;;;7.2;3.5;;;;;;;;;;;;;
2019/06/05 01:27:49;;;;;;;3.8;3.3;;;;;;;;;;;;;
2019/06/05 01:30:14;;;;;;;5.1;3.4;;;;;;;;;;;;;
2019/06/05 01:32:46;;;;;;;3.7;3.2;;;;;;;;;;;;;
2019/06/05 01:35:12;;;;;;;8.1;3.8;;;;;;;;;;;;;
2019/06/05 01:37:46;;;;;;;6.9;3.5;;;;;;;;;;;;;
2019/06/05 01:40:06;;;;;;;6.9;3.4;;;;;;;;;;;;;
2019/06/05 01:48:00;;;;;;;5;3.2;;;;;;;;;;;;;
2019/06/05 01:50:22;;;;;;;6.2;3.2;;;;;;;;;;;;;
2019/06/05 01:52:50;;;;;;;5.1;3.4;;;;;;;;;;;;;
2019/06/05 01:55:18;;;;;;;5.7;3.2;;;;;;;;;;;;;
2019/06/05 01:57:41;;;;;;;3.8;2.6;;;;;;;;;;;;;
2019/06/05 02:00:06;;;;;;;5.4;3;;;;;;;;;;;;;
2019/06/05 02:02:30;;;;;;;3.4;2.8;;;;;;;;;;;;;
2019/06/05 02:04:59;;;;;;;5.7;3;;;;;;;;;;;;;
2019/06/05 02:12:31;;;;;;;6;3.3;;;;;;;;;;;;;
2019/06/05 02:14:55;;;;;;;4.9;3.4;;;;;;;;;;;;;
2019/06/05 02:17:28;;;;;;;5.9;3.4;;;;;;;;;;;;;
2019/06/05 02:19:54;;;;;;;5;3.4;;;;;;;;;;;;;
2019/06/05 02:22:14;;;;;;;8.6;3.5;;;;;;;;;;;;;
2019/06/05 02:24:40;;;;;;;5.8;3.4;;;;;;;;;;;;;
2019/06/05 02:27:04;;;;;;;6.2;3.4;;;;;;;;;;;;;
2019/06/05 02:29:28;;;;;;;4.3;3.5;;;;;;;;;;;;;
2019/06/05 02:31:57;;;;;;;5.7;3.5;;;;;;;;;;;;;
2019/06/05 02:34:22;;;;;;;4.8;3.9;;;;;;;;;;;;;
2019/06/05 02:36:45;;;;;;;14.6;3.8;;;;;;;;;;;;;
2019/06/05 02:39:10;;;;;;;5.2;3.2;;;;;;;;;;;;;
2019/06/05 02:41:41;;;;;;;6.4;3.8;;;;;;;;;;;;;
2019/06/05 02:44:13;;;;;;;25;9.6;;;;;;;;;;;;;
2019/06/05 02:46:35;;;;;;;29.6;11.7;;;;;;;;;;;;;
2019/06/05 02:49:02;;;;;;;20.5;9.2;;;;;;;;;;;;;
2019/06/05 02:51:29;;;;;;;18.7;8.3;;;;;;;;;;;;;
2019/06/05 02:53:53;;;;;;;12.3;4.5;;;;;;;;;;;;;
2019/06/05 02:56:22;;;;;;;6.7;3.5;;;;;;;;;;;;;
2019/06/05 02:58:53;;;;;;;6.4;3.9;;;;;;;;;;;;;
2019/06/05 03:01:16;;;;;;;7.7;3.6;;;;;;;;;;;;;
2019/06/05 03:03:47;;;;;;;4.6;3.5;;;;;;;;;;;;;
2019/06/05 03:06:11;;;;;;;10.9;3.8;;;;;;;;;;;;;
2019/06/05 03:08:35;;;;;;;7.4;4.2;;;;;;;;;;;;;
2019/06/05 03:11:02;;;;;;;7.8;3.9;;;;;;;;;;;;;
2019/06/05 03:13:26;;;;;;;7.9;4.1;;;;;;;;;;;;;
2019/06/05 03:15:52;;;;;;;7.6;3.3;;;;;;;;;;;;;
2019/06/05 03:18:19;;;;;;;4.9;3.4;;;;;;;;;;;;;
2019/06/05 03:20:45;;;;;;;4.8;3.5;;;;;;;;;;;;;
2019/06/05 03:23:10;;;;;;;5;3.3;;;;;;;;;;;;;
2019/06/05 03:25:48;;;;;;;7.5;3.6;;;;;;;;;;;;;
2019/06/05 03:28:15;;;;;;;3.9;3.5;;;;;;;;;;;;;
2019/06/05 03:30:32;;;;;;;5.6;3.5;;;;;;;;;;;;;
2019/06/05 03:32:58;;;;;;;7.4;3.9;;;;;;;;;;;;;
2019/06/05 03:35:20;;;;;;;6.2;3.7;;;;;;;;;;;;;
2019/06/05 03:37:46;;;;;;;7.3;3.7;;;;;;;;;;;;;
2019/06/05 03:40:17;;;;;;;11.8;3.9;;;;;;;;;;;;;
2019/06/05 03:42:47;;;;;;;7.2;4;;;;;;;;;;;;;
2019/06/05 03:50:18;;;;;;;14.7;5.9;;;;;;;;;;;;;
2019/06/05 03:52:42;;;;;;;7.2;4.4;;;;;;;;;;;;;
2019/06/05 03:55:11;;;;;;;13.1;4.3;;;;;;;;;;;;;
2019/06/05 03:57:33;;;;;;;12.1;3.7;;;;;;;;;;;;;
2019/06/05 03:59:58;;;;;;;5.2;3.5;;;;;;;;;;;;;
2019/06/05 04:02:33;;;;;;;10.6;4;;;;;;;15.04;74.12207;932.3;;;;
2019/06/05 04:04:56;;;;;;;12;4.2;;;;;;;14.93;74.24219;932.2783;;;;
2019/06/05 04:07:29;;;;;;;8;3.9;;;;;;;14.84;74.83789;932.3792;;;;
2019/06/05 04:10:03;;;;;;;11.5;4.5;;;;;;;15.04;73.92578;932.377;;;;
2019/06/05 04:12:31;;;;;;;6.8;4.1;;;;;;;15.24;73.24512;932.3738;;;;
2019/06/05 04:18:41;;;;;;;7.2;3.9;;;;;;;15.34;73.17969;932.3318;;;;
2019/06/05 04:21:25;;;;;;;8.6;4;;;;;;;15.5;72.67578;932.2946;;;;
2019/06/05 04:23:56;;;;;;;9.9;3.9;;;;;;;15.55;72.26758;932.3362;;;;
2019/06/05 04:26:29;;;;;;;6.7;4.2;;;;;;;15.15;73.37891;932.355;;;;
2019/06/05 04:28:50;;;;;;;5.5;3.5;;;;;;;15.52;71.69824;932.3688;;;;
2019/06/05 04:31:16;;;;;;;5.8;3.6;;;;;;;15.81;70.53125;932.3677;;;;
2019/06/05 04:33:45;;;;;;;10;3.8;;;;;;;16.01;70.36621;932.3816;;;;
2019/06/05 04:36:10;;;;;;;6.7;3.5;;;;;;;16.14;69.50977;932.4554;;;;
2019/06/05 04:38:45;;;;;;;10.2;3.6;;;;;;;16.26;69.41406;932.3928;;;;
2019/06/05 04:41:17;;;;;;;9.7;3.5;;;;;;;16.44;69.00098;932.3579;;;;
2019/06/05 04:43:43;;;;;;;9.7;3.8;;;;;;;16.63;68.03418;932.403;;;;
2019/06/05 04:46:11;;;;;;;7.3;3.6;;;;;;;16.64;67.98047;932.3792;;;;
2019/06/05 04:48:45;;;;;;;6.6;3.2;;;;;;;16.64;67.87402;932.4059;;;;
2019/06/05 04:51:09;;;;;;;10.3;3.3;;;;;;;16.47;67.87109;932.3669;;;;
2019/06/05 04:53:50;;;;;;;9.7;3.6;;;;;;;16.47;67.73242;932.4054;;;;
2019/06/05 04:56:22;;;;;;;6.4;3.2;;;;;;;16.87;67.60938;932.3977;;;;
2019/06/05 04:58:57;;;;;;;30.7;4.7;;;;;;;17.25;65.65039;932.3833;;;;
2019/06/05 05:01:27;;;;;;;17.5;3.4;;;;;;;17.38;65.22949;932.4256;;;;
2019/06/05 05:03:49;;;;;;;8;3.2;;;;;;;17.9;64.96973;932.4264;;;;
2019/06/05 05:06:31;;;;;;;10.2;3.9;;;;;;;18.46;66.20215;932.5636;;;;
2019/06/05 05:09:03;;;;;;;12;4.4;;;;;;;18.65;66.97656;932.5461;;;;
2019/06/05 05:11:40;;;;;;;11;4.1;;;;;;;19.11;64.16992;932.5394;;;;
2019/06/05 05:14:04;;;;;;;10;3.3;;;;;;;20.23;59.23047;932.527;;;;
2019/06/05 05:16:31;;;;;;;10.7;3.2;;;;;;;21.1;55.41895;932.4703;;;;
2019/06/05 05:18:59;;;;;;;7.3;3.6;;;;;;;21.19;57.33691;932.5566;;;;
2019/06/05 05:21:29;;;;;;;11.1;3;;;;;;;21.37;57.39453;932.5831;;;;
2019/06/05 05:23:57;;;;;;;8.9;3.3;;;;;;;22.1;56.59863;932.6442;;;;
2019/06/05 05:26:23;;;;;;;9.9;3.3;;;;;;;21.74;59.94922;932.6462;;;;
2019/06/05 05:28:52;;;;;;;11.7;4;;;;;;;22.62;55.31445;932.6961;;;;
2019/06/05 05:31:19;;;;;;;11.8;4.4;;;;;;;22.35;52.64258;932.7414;;;;
2019/06/05 05:33:47;;;;;;;13.7;4.9;;;;;;;22.54;55.05859;932.7078;;;;
2019/06/05 05:36:17;;;;;;;11.1;4.1;;;;;;;23.51;50.74512;932.6824;;;;
2019/06/05 05:38:43;;;;;;;8.7;4.2;;;;;;;24.29;49.85547;932.6215;;;;
2019/06/05 05:41:09;;;;;;;10.3;4.2;;;;;;;24.13;48.53125;932.6894;;;;
2019/06/05 05:43:37;;;;;;;10.3;4.1;;;;;;;23.98;49.31543;932.682;;;;
2019/06/05 05:46:06;;;;;;;10.9;3.7;;;;;;;23.81;50.99023;932.6794;;;;
2019/06/05 05:48:33;;;;;;;6.1;3.4;;;;;;;23.86;52.36133;932.5984;;;;
2019/06/05 05:51:11;;;;;;;6.4;3.1;;;;;;;23.56;52.24414;932.6181;;;;
2019/06/05 05:53:36;;;;;;;6.5;2.6;;;;;;;22.73;55.12891;932.688;;;;
2019/06/05 05:56:01;;;;;;;7.4;2.7;;;;;;;23.08;55.05566;932.661;;;;
2019/06/05 05:58:34;;;;;;;8.4;2.5;;;;;;;24.13;51.94629;932.7114;;;;
2019/06/05 06:01:03;;;;;;;3;2.3;;;;;;;24.7;50.75;932.6955;;;;
2019/06/05 06:03:47;;;;;;;4.4;2.2;;;;;;;24.94;48.52441;932.6877;;;;
2019/06/05 06:06:18;;;;;;;8.4;3;;;;;;;24.72;51.22461;932.7569;;;;
2019/06/05 06:08:46;;;;;;;8;2.4;;;;;;;26.01;43.96875;932.658;;;;
2019/06/05 06:11:26;;;;;;;4.3;2.3;;;;;;;26.66;43.53613;932.7103;;;;
2019/06/05 06:13:50;;;;;;;4.9;2.3;;;;;;;27.44;40.14746;932.7413;;;;
2019/06/05 06:16:32;;;;;;;4.5;2;;;;;;;27.76;38.2041;932.7088;;;;
2019/06/05 06:18:57;;;;;;;7.6;2.3;;;;;;;28.41;38.32031;932.67;;;;
2019/06/05 06:21:29;;;;;;;7.9;2.3;;;;;;;28.81;37.67578;932.6122;;;;
2019/06/05 06:23:54;;;;;;;16.2;2.9;;;;;;;28.22;40.97754;932.6453;;;;
2019/06/05 06:26:26;;;;;;;8.5;2.2;;;;;;;28.65;39.29199;932.5056;;;;
2019/06/05 06:28:57;;;;;;;5.9;2;;;;;;;28.92;36.79199;932.5281;;;;
2019/06/05 06:31:22;;;;;;;5.1;2;;;;;;;30.04;35.37988;932.4775;;;;
2019/06/05 06:34:01;;;;;;;6;2.8;;;;;;;29.59;36.81152;932.4913;;;;
2019/06/05 06:36:27;;;;;;;12.7;2.5;;;;;;;30.37;31.88281;932.491;;;;
2019/06/05 06:38:57;;;;;;;7.6;2;;;;;;;30.36;28.84961;932.4266;;;;
2019/06/05 06:41:44;;;;;;;7.8;2;;;;;;;30.55;28.2168;932.3049;;;;
2019/06/05 06:44:19;;;;;;;8.3;2;;;;;;;30.36;29.6377;932.3254;;;;
2019/06/05 06:46:53;;;;;;;4.7;1.7;;;;;;;29.05;31.1709;932.3123;;;;
2019/06/05 06:49:27;;;;;;;3.7;1.8;;;;;;;29.18;31.64453;932.293;;;;
2019/06/05 06:52:05;;;;;;;4;1.7;;;;;;;29.4;30.30176;932.2062;;;;
2019/06/05 06:54:39;;;;;;;4;1.6;;;;;;;28.99;30.79688;932.2366;;;;
2019/06/05 06:57:16;;;;;;;2.2;1.6;;;;;;;29.03;30.43066;932.1588;;;;
2019/06/05 06:59:39;;;;;;;2.5;1.5;;;;;;;29.53;30.25098;932.1269;;;;
2019/06/05 07:02:10;;;;;;;5.7;1.7;;;;;;;30.05;28.96094;932.1067;;;;
2019/06/05 07:04:37;;;;;;;7.5;1.7;;;;;;;30.38;29.45898;932.0952;;;;
2019/06/05 07:07:18;;;;;;;4.1;1.6;;;;;;;30.13;29.84863;932.1268;;;;
2019/06/05 07:09:52;;;;;;;7.6;1.8;;;;;;;30.88;28.97852;932.063;;;;
2019/06/05 07:12:20;;;;;;;5.3;1.8;;;;;;;31.71;30.78027;932.0745;;;;
2019/06/05 07:14:48;;;;;;;5.1;1.8;;;;;;;32.06;30.47949;932.074;;;;
2019/06/05 07:17:16;;;;;;;3.3;1.5;;;;;;;32.71;27.04297;932.038;;;;
2019/06/05 07:19:41;;;;;;;3.5;1.7;;;;;;;32.65;26.61914;932.005;;;;
2019/06/05 07:22:09;;;;;;;4.6;1.5;;;;;;;32.15;25.27148;932.0222;;;;
2019/06/05 07:24:41;;;;;;;4.6;1.6;;;;;;;31.68;31.04102;932.0105;;;;
2019/06/05 07:27:07;;;;;;;7.1;1.7;;;;;;;31.76;28.02734;931.9963;;;;
2019/06/05 07:29:34;;;;;;;3.2;1.4;;;;;;;31.39;27.89746;931.9465;;;;
2019/06/05 07:32:02;;;;;;;3.3;1.5;;;;;;;31.24;27.81641;931.949;;;;
2019/06/05 07:34:35;;;;;;;5;1.6;;;;;;;31.25;28.75;931.9252;;;;
2019/06/05 07:36:59;;;;;;;3.5;1.3;;;;;;;31.98;27.4541;931.8448;;;;
2019/06/05 07:39:32;;;;;;;2.1;1.5;;;;;;;31.25;28.10449;931.9067;;;;
2019/06/05 07:42:05;;;;;;;6.1;1.6;;;;;;;31.94;30.05273;931.8692;;;;
2019/06/05 07:44:30;;;;;;;2.9;1.8;;;;;;;31.71;28.39648;931.8242;;;;
2019/06/05 07:46:58;;;;;;;3.1;1.5;;;;;;;31.74;28.06348;931.7922;;;;
2019/06/05 07:49:29;;;;;;;3.9;1.5;;;;;;;31.18;30.82813;931.7746;;;;
2019/06/05 07:51:54;;;;;;;2.4;1.6;;;;;;;30.45;29.79883;931.7619;;;;
2019/06/05 07:54:27;;;;;;;2.3;1.6;;;;;;;32.22;30.39453;931.6886;;;;
2019/06/05 07:56:53;;;;;;;3.8;1.6;;;;;;;33.46;25.46387;931.6628;;;;
2019/06/05 07:59:26;;;;;;;1.8;1.5;;;;;;;33.44;25.93164;931.5838;;;;
2019/06/05 08:01:59;;;;;;;4.7;1.6;;;;;;;32.47;27.45996;931.584;;;;
2019/06/05 08:05:15;;;;;;;6.1;1.6;;;;;;;32.79;25.2832;931.6522;;;;
2019/06/05 08:07:45;;;;;;;4.9;1.6;;;;;;;33.53;24.71094;931.5605;;;;
2019/06/05 08:10:12;;;;;;;4.7;1.9;;;;;;;34.21;23.91602;931.5195;;;;
2019/06/05 08:12:42;;;;;;;3;1.6;;;;;;;32.58;26.6875;931.4958;;;;
2019/06/05 08:15:19;;;;;;;3.4;1.5;;;;;;;33.62;26.91699;931.5081;;;;
2019/06/05 08:17:52;;;;;;;3.7;1.6;;;;;;;33.13;25.99902;931.4231;;;;
2019/06/05 08:20:25;;;;;;;6.4;1.5;;;;;;;34.95;23.73828;931.4406;;;;
2019/06/05 08:23:13;;;;;;;4.2;1.6;;;;;;;35.09;22.39355;931.517;;;;
2019/06/05 08:25:41;;;;;;;5.9;1.4;;;;;;;35.27;24.91406;931.4171;;;;
2019/06/05 08:28:09;;;;;;;2.4;1.3;;;;;;;36.39;21.78027;931.4306;;;;
2019/06/05 08:30:37;;;;;;;2.1;1.4;;;;;;;36.97;21.31152;931.3655;;;;
2019/06/05 08:33:19;;;;;;;2.9;1.6;;;;;;;36.99;22.51172;931.3395;;;;
2019/06/05 08:35:37;;;;;;;3;1.3;;;;;;;36.63;25.3623;931.3582;;;;
2019/06/05 08:38:05;;;;;;;2.1;1.5;;;;;;;36.32;25.69727;931.3865;;;;
2019/06/05 08:40:34;;;;;;;4.2;1.5;;;;;;;35.95;22.47266;931.3809;;;;
2019/06/05 08:43:04;;;;;;;3.9;1.5;;;;;;;36.6;25.42188;931.4045;;;;
2019/06/05 08:45:30;;;;;;;7.5;1.9;;;;;;;36.36;26.49707;931.4504;;;;
2019/06/05 08:48:08;;;;;;;6.8;1.9;;;;;;;36.95;25.05371;931.3688;;;;
2019/06/05 08:50:29;;;;;;;4.8;1.5;;;;;;;36.63;25.45996;931.4019;;;;
2019/06/05 08:53:02;;;;;;;4.9;1.5;;;;;;;36.38;23.02637;931.423;;;;
2019/06/05 08:55:26;;;;;;;4.5;1.4;;;;;;;36.1;24.39063;931.3928;;;;
2019/06/05 08:57:56;;;;;;;3.5;1.6;;;;;;;35.91;24.42871;931.3983;;;;
2019/06/05 09:00:26;;;;;;;2.6;1.4;;;;;;;36.08;24.29297;931.3922;;;;
2019/06/05 09:03:02;;;;;;;2.3;1.4;;;;;;;35.83;25.28223;931.3739;;;;
2019/06/05 09:05:22;;;;;;;3.2;1.4;;;;;;;35.83;23.15527;931.2374;;;;
2019/06/05 09:07:52;;;;;;;3.1;1.5;;;;;;;36.09;22.37012;931.258;;;;
2019/06/05 09:10:31;;;;;;;2;1.4;;;;;;;35.04;24.70801;931.2311;;;;
2019/06/05 09:12:55;;;;;;;1.9;1.2;;;;;;;34.85;23.08203;931.1961;;;;
2019/06/05 09:15:23;;;;;;;4.8;1.5;;;;;;;34.58;24.55078;931.1214;;;;
2019/06/05 09:17:53;;;;;;;4.4;1.6;;;;;;;34.4;26.54102;931.1453;;;;
2019/06/05 09:20:20;;;;;;;4.1;1.5;;;;;;;33.85;26.59277;931.1459;;;;
2019/06/05 09:22:55;;;;;;;2.2;1.6;;;;;;;34.05;26.13477;931.11;;;;
2019/06/05 09:25:22;;;;;;;4.5;1.7;;;;;;;33.76;26.00977;931.0541;;;;
2019/06/05 09:27:46;;;;;;;2.9;1.6;;;;;;;33.79;25.93945;930.9897;;;;
2019/06/05 09:30:10;;;;;;;3;1.6;;;;;;;33.64;26.90527;931.0596;;;;
2019/06/05 09:32:37;;;;;;;6.9;1.8;;;;;;;33.12;27.09082;931.0037;;;;
2019/06/05 09:35:06;;;;;;;5.3;2;;;;;;;32.76;28.99023;931.0131;;;;
2019/06/05 09:37:32;;;;;;;5.7;2;;;;;;;33.06;29.29785;931.0119;;;;
2019/06/05 09:39:59;;;;;;;4.8;1.9;;;;;;;33.01;28.53809;930.9678;;;;
2019/06/05 09:42:27;;;;;;;4;1.7;;;;;;;32.92;30.9707;931.0031;;;;
2019/06/05 09:44:55;;;;;;;3.7;2;;;;;;;33.05;27.97559;930.966;;;;
2019/06/05 09:47:21;;;;;;;2.7;1.8;;;;;;;32.9;28.59082;930.9059;;;;
2019/06/05 09:49:54;;;;;;;5.6;1.8;;;;;;;32.77;29.8916;930.8873;;;;
2019/06/05 09:52:21;;;;;;;4.4;2;;;;;;;32.66;28.73242;930.8596;;;;
2019/06/05 09:54:48;;;;;;;4.9;2.1;;;;;;;32.49;29.27344;930.8806;;;;
2019/06/05 09:57:14;;;;;;;2.9;1.9;;;;;;;32.2;29.56641;930.8649;;;;
2019/06/05 10:03:54;;;;;;;3.4;2.2;;;;;;;32.32;30.38867;930.8394;;;;
2019/06/05 10:06:13;;;;;;;4.6;2.2;;;;;;;32.07;30.90039;930.8335;;;;
2019/06/05 10:08:45;;;;;;;9;2.3;;;;;;;32.15;31.90039;930.7963;;;;
2019/06/05 10:11:17;;;;;;;3.4;2.1;;;;;;;32.45;30.19336;930.8011;;;;
2019/06/05 10:13:49;;;;;;;3.7;2;;;;;;;32.53;30.23535;930.7015;;;;
2019/06/05 10:16:19;;;;;;;3.8;2.2;;;;;;;32.38;29.27734;930.6994;;;;
2019/06/05 10:18:42;;;;;;;5.2;2.2;;;;;;;32.59;30.0957;930.6183;;;;
2019/06/05 10:21:13;;;;;;;4.6;2;;;;;;;32.96;30.43164;930.5731;;;;
2019/06/05 10:23:39;;;;;;;6.8;2.3;;;;;;;32.9;30.95703;930.5403;;;;
2019/06/05 10:26:13;;;;;;;3.2;2.1;;;;;;;32.4;31.67871;930.5367;;;;
2019/06/05 10:28:44;;;;;;;4;2.1;;;;;;;32.58;30.76758;930.5499;;;;
2019/06/05 10:31:11;;;;;;;5.3;2.2;;;;;;;32.43;31.00879;930.5307;;;;
2019/06/05 10:33:38;;;;;;;3;2.2;;;;;;;32.78;31.35645;930.5033;;;;
2019/06/05 10:36:12;;;;;;;4;2.2;;;;;;;32.47;33.14648;930.5103;;;;
2019/06/05 10:38:40;;;;;;;3.6;2.1;;;;;;;32;32.71777;930.421;;;;
2019/06/05 10:41:09;;;;;;;5.6;2.3;;;;;;;32.11;33.2998;930.4531;;;;
2019/06/05 10:43:38;;;;;;;3.6;2.2;;;;;;;32.51;33.04199;930.4183;;;;
2019/06/05 10:46:16;;;;;;;6.1;2.7;;;;;;;32.56;31.46191;930.3565;;;;
2019/06/05 10:48:36;;;;;;;3.6;2.1;;;;;;;32.41;32.89063;930.3203;;;;
2019/06/05 10:51:03;;;;;;;4.6;2.2;;;;;;;32.46;32.17383;930.2759;;;;
2019/06/05 10:53:37;;;;;;;4.3;2.1;;;;;;;32.27;33.49219;930.2247;;;;
2019/06/05 10:56:19;;;;;;;4.9;2;;;;;;;32.47;33.44629;930.2651;;;;
2019/06/05 10:58:49;;;;;;;4.1;2.1;;;;;;;32.32;32.2002;930.1878;;;;
2019/06/05 11:01:20;;;;;;;3.4;2.2;;;;;;;32.48;32.61914;930.1884;;;;
2019/06/05 11:03:46;;;;;;;3.1;2.2;;;;;;;32.37;32.62305;930.1998;;;;
2019/06/05 11:06:15;;;;;;;5.2;2.2;;;;;;;32.17;32.8252;930.1379;;;;
2019/06/05 11:08:40;;;;;;;6.5;2.2;;;;;;;32.32;33.03906;930.1404;;;;
2019/06/05 11:11:05;;;;;;;6.6;2.4;;;;;;;31.74;34.375;930.1192;;;;
2019/06/05 11:13:38;;;;;;;6.2;2.2;;;;;;;31.8;32.23535;930.0864;;;;
2019/06/05 11:16:05;;;;;;;4;2.3;;;;;;;31.98;34.24902;930.0378;;;;
2019/06/05 11:18:34;;;;;;;5.5;2.3;;;;;;;32.08;32.73438;930.0583;;;;
2019/06/05 11:21:12;;;;;;;3.3;2.1;;;;;;;32.47;30.30371;930.0922;;;;
2019/06/05 11:23:40;;;;;;;4.7;2;;;;;;;32.45;31.88574;929.9515;;;;
2019/06/05 11:26:09;;;;;;;3.7;2.2;;;;;;;32.85;32.0332;929.9756;;;;
2019/06/05 11:28:35;;;;;;;3.3;2.1;;;;;;;32.63;31.50293;929.955;;;;
2019/06/05 11:31:08;;;;;;;7.6;2.3;;;;;;;32.77;32.20898;929.845;;;;
2019/06/05 11:33:40;;;;;;;4.5;2.1;;;;;;;32.41;31.42676;929.9456;;;;
2019/06/05 11:35:58;;;;;;;8.3;2.2;;;;;;;32.32;31.33594;929.8767;;;;
2019/06/05 11:38:25;;;;;;;6.2;2.2;;;;;;;32.49;31.48047;929.8781;;;;
2019/06/05 11:40:49;;;;;;;5.6;2.2;;;;;;;32.44;31.80078;929.7739;;;;
2019/06/05 11:43:17;;;;;;;6.5;2.3;;;;;;;32.39;32.34863;929.809;;;;
2019/06/05 11:45:41;;;;;;;5.7;2.3;;;;;;;32.6;32.31543;929.7251;;;;
2019/06/05 11:48:11;;;;;;;4.7;2.1;;;;;;;32.9;33.875;929.6878;;;;
2019/06/05 11:50:46;;;;;;;4.9;2.2;;;;;;;32.75;29.86621;929.6462;;;;
2019/06/05 11:53:18;;;;;;;5;1.9;;;;;;;32.81;32.93164;929.6778;;;;
2019/06/05 11:55:42;;;;;;;3.8;2.1;;;;;;;33.02;29.90723;929.616;;;;
2019/06/05 11:58:13;;;;;;;4.3;2.2;;;;;;;33.16;32.2002;929.644;;;;
2019/06/05 12:00:47;;;;;;;3.4;2.1;;;;;;;33.25;29.92285;929.5994;;;;
2019/06/05 12:03:32;;;;;;;5.4;2.2;;;;;;;32.48;30.9043;929.5631;;;;
2019/06/05 12:06:00;;;;;;;6;2.1;;;;;;;32.85;29.04395;929.5005;;;;
2019/06/05 12:08:33;;;;;;;9.8;3;;;;;;;33.1;29.63672;929.4846;;;;
2019/06/05 12:11:02;;;;;;;8.1;2.5;;;;;;;33.16;29.72461;929.4327;;;;
2019/06/05 12:13:35;;;;;;;22.9;2.7;;;;;;;32.92;30.26172;929.4153;;;;
2019/06/05 12:15:57;;;;;;;5.5;1.9;;;;;;;32.2;32.89941;929.3279;;;;
2019/06/05 12:18:30;;;;;;;5.7;2.2;;;;;;;32.5;31.07324;929.3871;;;;
2019/06/05 12:20:52;;;;;;;3.8;2;;;;;;;32.5;30.2334;929.3095;;;;
2019/06/05 12:23:20;;;;;;;5.4;2.4;;;;;;;32.55;29.49316;929.3028;;;;
2019/06/05 12:25:43;;;;;;;6.8;2.3;;;;;;;32.9;30.93262;929.2733;;;;
2019/06/05 12:28:10;;;;;;;5.8;2.5;;;;;;;32.9;30.44043;929.3144;;;;
2019/06/05 12:30:34;;;;;;;2.9;2.1;;;;;;;32.87;31.05078;929.2926;;;;
2019/06/05 12:33:05;;;;;;;4;2.1;;;;;;;32.56;31.37695;929.2012;;;;
2019/06/05 12:35:38;;;;;;;7.3;2;;;;;;;32.58;29.83008;929.2587;;;;
2019/06/05 12:38:09;;;;;;;5.6;2.3;;;;;;;32.12;30.95215;929.2375;;;;
2019/06/05 12:40:36;;;;;;;3.4;2.1;;;;;;;32.32;31.2168;929.1369;;;;
2019/06/05 12:43:04;;;;;;;6.6;2.1;;;;;;;31.96;31.32422;929.1857;;;;
2019/06/05 12:45:30;;;;;;;4.7;2.2;;;;;;;31.68;31.28125;929.0862;;;;
2019/06/05 12:48:02;;;;;;;4.2;2.4;;;;;;;31.9;31.81055;929.079;;;;
2019/06/05 12:50:36;;;;;;;6.8;2.4;;;;;;;32.17;32.74121;928.916;;;;
2019/06/05 12:53:07;;;;;;;9;2.3;;;;;;;32.67;33.06543;929.0017;;;;
2019/06/05 12:55:40;;;;;;;12.8;2.6;;;;;;;32.63;31.82617;929.0237;;;;
2019/06/05 12:58:15;;;;;;;11.3;2.4;;;;;;;32.59;31.2959;929.0578;;;;
2019/06/05 13:00:36;;;;;;;113.8;5.9;;;;;;;32.51;33.04199;928.924;;;;
2019/06/05 13:03:08;;;;;;;8.9;2.5;;;;;;;32.25;33.80176;928.9353;;;;
2019/06/05 13:05:38;;;;;;;4.5;2.4;;;;;;;31.9;35.21387;928.9078;;;;
2019/06/05 13:08:03;;;;;;;5.4;2.4;;;;;;;32.35;32.23828;928.8369;;;;
2019/06/05 13:10:32;;;;;;;7.8;2.4;;;;;;;32.17;33.05371;928.8144;;;;
2019/06/05 13:13:26;;;;;;;5.2;2.2;;;;;;;32.14;32.0791;928.7996;;;;
2019/06/05 13:15:41;;;;;;;7.2;2.4;;;;;;;31.81;34.41602;928.7977;;;;
2019/06/05 13:18:05;;;;;;;10.3;2.4;;;;;;;31.75;35.25098;928.6856;;;;
2019/06/05 13:20:38;;;;;;;6;2.4;;;;;;;32.22;31.46191;928.6813;;;;
2019/06/05 13:22:57;;;;;;;5.8;2.3;;;;;;;32;33.00488;928.6116;;;;
2019/06/05 15:28:05;;;;;;;6.3;2.3;;;;;;;29.98;29.34961;927.6088;;;;
2019/06/05 15:30:44;;;;;;;6.1;2.9;;;;;;;29.92;29.25098;927.5455;;;;
2019/06/05 15:33:10;;;;;;;5;2.7;;;;;;;30;30.10352;927.4863;;;;
2019/06/05 15:35:46;;;;;;;5.6;2.6;;;;;;;29.9;29.8457;927.4711;;;;
2019/06/05 15:38:22;;;;;;;4.7;2.9;;;;;;;29.82;29.78027;927.442;;;;
2019/06/05 15:40:52;;;;;;;4.6;3.1;;;;;;;29.84;30.24707;927.421;;;;
2019/06/05 15:43:25;;;;;;;4.9;2.5;;;;;;;29.87;30.32031;927.4336;;;;
2019/06/05 15:45:55;;;;;;;4.9;2.6;;;;;;;29.95;30.13574;927.4084;;;;
2019/06/05 15:48:29;;;;;;;4.6;3;;;;;;;29.83;29.85352;927.3788;;;;
2019/06/05 15:51:01;;;;;;;4;2.7;;;;;;;29.86;30.89355;927.4034;;;;
2019/06/05 15:53:32;;;;;;;3.3;2.6;;;;;;;29.7;30.23828;927.3417;;;;
2019/06/05 15:55:58;;;;;;;5.6;2.5;;;;;;;29.79;30.375;927.2996;;;;
2019/06/05 15:58:29;;;;;;;5.5;3;;;;;;;29.87;30.35645;927.3928;;;;
2019/06/05 16:01:01;;;;;;;3.7;2.7;;;;;;;29.77;30.60059;927.3379;;;;
2019/06/05 16:03:30;;;;;;;5.4;2.7;;;;;;;29.65;31.31934;927.2901;;;;
2019/06/05 16:05:57;;;;;;;4.9;2.9;;;;;;;29.79;32.00879;927.3258;;;;
2019/06/05 16:08:27;;;;;;;5.7;2.9;;;;;;;29.48;31.80859;927.2875;;;;
2019/06/05 16:10:53;;;;;;;5.4;2.7;;;;;;;29.46;32.66504;927.3167;;;;
2019/06/05 16:13:19;;;;;;;4.3;3;;;;;;;29.58;32.51953;927.2897;;;;
2019/06/05 16:16:00;;;;;;;3.3;2.7;;;;;;;29.52;32.88379;927.3013;;;;
2019/06/05 16:18:28;;;;;;;5.4;3;;;;;;;29.2;34.57617;927.3647;;;;
2019/06/05 16:20:56;;;;;;;6.7;2.8;;;;;;;29.41;33.99609;927.3184;;;;
2019/06/05 16:23:25;;;;;;;7.3;2.6;;;;;;;29.62;35.32324;927.2957;;;;
2019/06/05 16:25:51;;;;;;;4.8;2.8;;;;;;;29.9;33.53125;927.2872;;;;
2019/06/05 16:28:21;;;;;;;3.3;2.6;;;;;;;29.75;33.11523;927.2411;;;;
2019/06/05 16:30:46;;;;;;;4;2.9;;;;;;;29.49;34.27637;927.2059;;;;
2019/06/05 16:33:14;;;;;;;6;2.8;;;;;;;29.03;34.0625;927.2004;;;;
2019/06/05 16:35:37;;;;;;;4.8;2.8;;;;;;;29.25;34.20996;927.212;;;;
2019/06/05 16:38:06;;;;;;;4.1;3;;;;;;;29.11;34.61621;927.1418;;;;
2019/06/05 16:40:39;;;;;;;5.7;3;;;;;;;29.15;34.39355;927.1254;;;;
2019/06/05 16:43:08;;;;;;;6.4;4.2;;;;;;;28.95;34.0918;927.1152;;;;
2019/06/05 16:45:38;;;;;;;5.1;3.2;;;;;;;29.06;34.39746;927.1125;;;;
2019/06/05 16:48:05;;;;;;;7.3;3.7;;;;;;;28.94;34.48438;927.0379;;;;
2019/06/05 16:50:34;;;;;;;8.7;3.9;;;;;;;28.77;34.85254;927.1658;;;;
2019/06/05 16:53:10;;;;;;;5.5;2.6;;;;;;;28.7;34.94141;927.0605;;;;
2019/06/05 16:55:42;;;;;;;7.6;2.8;;;;;;;28.46;35.86328;927.0726;;;;
2019/06/05 16:58:15;;;;;;;5.8;2.9;;;;;;;28.25;36.5127;927.1118;;;;
2019/06/05 17:00:51;;;;;;;4.8;2.9;;;;;;;28.11;36.52344;927.0239;;;;
2019/06/05 17:03:18;;;;;;;4.6;3;;;;;;;27.84;37.45117;927.0909;;;;
2019/06/05 17:05:44;;;;;;;4.9;2.8;;;;;;;28.02;37.16992;927.0967;;;;
2019/06/05 17:08:08;;;;;;;6.1;3;;;;;;;28.23;36.48633;927.0722;;;;
2019/06/05 17:10:33;;;;;;;5;3.1;;;;;;;28.19;36.58984;927.1525;;;;
2019/06/05 17:13:01;;;;;;;6.6;3.1;;;;;;;27.87;36.75391;927.1469;;;;
2019/06/05 17:15:27;;;;;;;6.6;3.2;;;;;;;28.02;36.57617;927.0967;;;;
2019/06/05 17:17:54;;;;;;;8;3.6;;;;;;;27.82;36.67773;927.1117;;;;
2019/06/05 17:20:21;;;;;;;5.8;3.3;;;;;;;27.72;36.99121;927.0945;;;;
2019/06/05 17:22:44;;;;;;;6.4;3.3;;;;;;;27.67;37.54492;927.0779;;;;
2019/06/05 17:25:16;;;;;;;6.5;3.2;;;;;;;27.97;37.17773;926.9886;;;;
2019/06/05 17:27:45;;;;;;;4.4;3.2;;;;;;;28.06;37.10156;927.0691;;;;
2019/06/05 17:30:12;;;;;;;5.6;3.3;;;;;;;28.05;37.1123;927.0666;;;;
2019/06/05 17:32:37;;;;;;;7.4;3.5;;;;;;;27.88;37.87109;927.0825;;;;
2019/06/05 17:35:08;;;;;;;6.2;3.3;;;;;;;27.88;37.90625;927.0786;;;;
2019/06/05 17:37:45;;;;;;;6.6;3.5;;;;;;;27.91;38.76367;926.9945;;;;
2019/06/05 17:40:11;;;;;;;6;3.3;;;;;;;27.84;38.86426;927.0084;;;;
2019/06/05 17:42:41;;;;;;;5.9;3.3;;;;;;;27.81;38.62598;926.9861;;;;
2019/06/05 17:45:08;;;;;;;5.3;3.3;;;;;;;27.9;39.01367;926.9266;;;;
2019/06/05 17:47:33;;;;;;;4.3;3.3;;;;;;;27.81;40.02539;927.0176;;;;
2019/06/05 17:50:12;;;;;;;5.5;3.4;;;;;;;27.47;39.20117;926.9864;;;;
2019/06/05 17:52:44;;;;;;;4.3;3.2;;;;;;;27.32;39.80469;927.0229;;;;
2019/06/05 17:55:13;;;;;;;4.5;3.2;;;;;;;27.52;39.32422;927.0122;;;;
2019/06/05 17:57:41;;;;;;;5.9;3.3;;;;;;;27.55;39.5166;927.0589;;;;
2019/06/05 18:00:11;;;;;;;4.9;3.2;;;;;;;27.31;40.33691;927.0427;;;;
2019/06/05 18:02:37;;;;;;;4.5;3.4;;;;;;;27.45;40.58691;927.0483;;;;
2019/06/05 18:05:10;;;;;;;7.6;3.5;;;;;;;27.3;41.88965;927.0925;;;;
2019/06/05 18:07:43;;;;;;;5.5;3.3;;;;;;;26.78;43.31152;927.0391;;;;
2019/06/05 18:10:10;;;;;;;7.4;3.6;;;;;;;26.93;42.28223;927.0828;;;;
2019/06/05 18:12:39;;;;;;;3.8;3.4;;;;;;;26.85;42.17871;926.9763;;;;
2019/06/05 18:15:10;;;;;;;7.4;3.5;;;;;;;26.79;42.4707;927.06;;;;